Montpelier, IA (52759)

8:58 PM CST on December 05, 2016 (GMT -0600)
Emeis | | Change Station

Elev 696 ft 41.55 °N, 90.64 °W | Updated 31 seconds ago

Overcast
Overcast
33.0 °F
Feels Like 33 °F
N
2.0
Wind Variable Wind from South

Today
High -- | Low -- °F
--% Chance of Precip.
Yesterday
High -- | Low -- °F
Precip. -- in
Pressure 29.91 in
Visibility 8.0 miles
Clouds Overcast 600 ft
Windchill 33 °F
Dew Point 31 °F
Humidity 95%
Rainfall 0.00 in
Snow Depth Not available.
7:14 AM 4:33 PM
Waxing Crescent, 37% visible
METAR KDVN 060252Z AUTO 13013KT 8SM OVC006 00/M01 A2989 RMK AO2 SLP128 T00001011 55011
Pressure 29.91 in
Visibility 8.0 miles
Clouds Overcast 600 ft
Windchill 33 °F
Dew Point 31 °F
Humidity 95%
Rainfall 0.00 in
Snow Depth Not available.
7:14 AM 4:33 PM
Waxing Crescent, 37% visible
METAR KDVN 060252Z AUTO 13013KT 8SM OVC006 00/M01 A2989 RMK AO2 SLP128 T00001011 55011

10-Day Weather Forecast

Almanac

Astronomy

Dec. 05, 2016 Rise Set
Actual Time
Civil Twilight
Nautical Twilight
Astronomical Twilight
Moon
Length of Visible Light
Length of Day
Tomorrow will be .
, % of the Moon is Illuminated

Today's Extremes

State Highs State Lows

Community

WunderPhotos

Upload Photos

1,955,908 photos uploaded!

WunderBlog® & News

Nearby

Air Quality

  Air Quality AQ Index Pollutant
Not available.

Snow Depth

Station Depth Elevation

Earthquake Activity

City Distance Mag. Time & Date
Minimum magnitude displayed is 2.5.

Coastal Water Temperatures

Place Temperature

Stations

Nearby Weather Stations

Station Location Temp. Windchill Dew Point Humidity Wind Precip. Elev Updated Type
                   

Watches & Warnings

There are currently no watches in effect.